sensor_id;sensor_type;location;lat;lon;timestamp;pressure;altitude;pressure_sealevel;temperature;humidity
84032;BME280;74113;46.556;24.570;2024-03-02T00:01:54;97741.48;;;12.81;36.58
84032;BME280;74113;46.556;24.570;2024-03-02T00:04:23;97744.02;;;12.79;37.06
84032;BME280;74113;46.556;24.570;2024-03-02T00:06:52;97740.41;;;12.75;37.98
84032;BME280;74113;46.556;24.570;2024-03-02T00:09:24;97735.08;;;12.70;38.35
84032;BME280;74113;46.556;24.570;2024-03-02T00:11:53;97731.27;;;12.67;38.08
84032;BME280;74113;46.556;24.570;2024-03-02T00:14:22;97724.61;;;12.62;38.46
84032;BME280;74113;46.556;24.570;2024-03-02T00:16:55;97716.90;;;12.57;38.89
84032;BME280;74113;46.556;24.570;2024-03-02T00:19:24;97716.92;;;12.53;38.39
84032;BME280;74113;46.556;24.570;2024-03-02T00:21:53;97720.27;;;12.49;38.56
84032;BME280;74113;46.556;24.570;2024-03-02T00:24:31;97725.64;;;12.46;38.54
84032;BME280;74113;46.556;24.570;2024-03-02T00:27:03;97722.50;;;12.43;38.42
84032;BME280;74113;46.556;24.570;2024-03-02T00:29:34;97724.11;;;12.39;38.56
84032;BME280;74113;46.556;24.570;2024-03-02T00:32:03;97722.30;;;12.37;38.61
84032;BME280;74113;46.556;24.570;2024-03-02T00:34:36;97722.67;;;12.37;39.31
84032;BME280;74113;46.556;24.570;2024-03-02T00:37:05;97717.70;;;12.35;38.96
84032;BME280;74113;46.556;24.570;2024-03-02T00:39:34;97717.64;;;12.33;39.05
84032;BME280;74113;46.556;24.570;2024-03-02T00:42:05;97719.19;;;12.30;39.21
84032;BME280;74113;46.556;24.570;2024-03-02T00:44:34;97720.16;;;12.29;39.72
84032;BME280;74113;46.556;24.570;2024-03-02T00:47:04;97723.02;;;12.27;39.66
84032;BME280;74113;46.556;24.570;2024-03-02T00:49:32;97724.11;;;12.23;39.45
84032;BME280;74113;46.556;24.570;2024-03-02T00:52:01;97722.16;;;12.21;40.08
84032;BME280;74113;46.556;24.570;2024-03-02T00:54:30;97720.64;;;12.20;40.08
84032;BME280;74113;46.556;24.570;2024-03-02T00:56:59;97720.10;;;12.17;40.46
84032;BME280;74113;46.556;24.570;2024-03-02T00:59:27;97713.02;;;12.16;40.27
84032;BME280;74113;46.556;24.570;2024-03-02T01:01:56;97712.31;;;12.13;40.36
84032;BME280;74113;46.556;24.570;2024-03-02T01:04:24;97705.57;;;12.06;40.47
84032;BME280;74113;46.556;24.570;2024-03-02T01:06:53;97697.45;;;12.05;40.28
84032;BME280;74113;46.556;24.570;2024-03-02T01:09:22;97694.14;;;12.02;40.92
84032;BME280;74113;46.556;24.570;2024-03-02T01:11:50;97686.73;;;11.94;41.42
84032;BME280;74113;46.556;24.570;2024-03-02T01:14:19;97688.87;;;11.90;41.38
84032;BME280;74113;46.556;24.570;2024-03-02T01:16:47;97686.50;;;11.89;42.04
84032;BME280;74113;46.556;24.570;2024-03-02T01:19:17;97679.63;;;11.87;42.45
84032;BME280;74113;46.556;24.570;2024-03-02T01:21:46;97670.57;;;11.85;42.55
84032;BME280;74113;46.556;24.570;2024-03-02T01:24:14;97666.73;;;11.82;41.81
84032;BME280;74113;46.556;24.570;2024-03-02T01:26:43;97662.84;;;11.79;42.59
84032;BME280;74113;46.556;24.570;2024-03-02T01:29:12;97666.06;;;11.78;43.06
84032;BME280;74113;46.556;24.570;2024-03-02T01:31:40;97664.20;;;11.76;43.86
84032;BME280;74113;46.556;24.570;2024-03-02T01:34:10;97662.41;;;11.75;42.68
84032;BME280;74113;46.556;24.570;2024-03-02T01:36:41;97672.72;;;11.73;42.42
84032;BME280;74113;46.556;24.570;2024-03-02T01:39:09;97679.63;;;11.71;42.27
84032;BME280;74113;46.556;24.570;2024-03-02T01:41:39;97677.03;;;11.71;43.25
84032;BME280;74113;46.556;24.570;2024-03-02T01:44:07;97667.14;;;11.70;43.21
84032;BME280;74113;46.556;24.570;2024-03-02T01:46:35;97667.11;;;11.67;43.48
84032;BME280;74113;46.556;24.570;2024-03-02T01:49:04;97659.77;;;11.62;43.32
84032;BME280;74113;46.556;24.570;2024-03-02T01:51:32;97659.39;;;11.56;43.34
84032;BME280;74113;46.556;24.570;2024-03-02T01:54:01;97653.21;;;11.51;43.94
84032;BME280;74113;46.556;24.570;2024-03-02T01:56:30;97646.67;;;11.43;43.58
84032;BME280;74113;46.556;24.570;2024-03-02T01:58:58;97641.69;;;11.38;43.78
84032;BME280;74113;46.556;24.570;2024-03-02T02:01:27;97644.94;;;11.36;44.12
84032;BME280;74113;46.556;24.570;2024-03-02T02:03:56;97649.59;;;11.33;43.82
84032;BME280;74113;46.556;24.570;2024-03-02T02:06:24;97646.75;;;11.31;44.20
84032;BME280;74113;46.556;24.570;2024-03-02T02:08:53;97638.37;;;11.28;44.78
84032;BME280;74113;46.556;24.570;2024-03-02T02:11:22;97637.19;;;11.25;45.52
84032;BME280;74113;46.556;24.570;2024-03-02T02:13:50;97630.85;;;11.20;45.00
84032;BME280;74113;46.556;24.570;2024-03-02T02:16:18;97632.23;;;11.16;45.55
84032;BME280;74113;46.556;24.570;2024-03-02T02:18:47;97627.75;;;11.13;46.42
84032;BME280;74113;46.556;24.570;2024-03-02T02:21:16;97628.38;;;11.10;47.28
84032;BME280;74113;46.556;24.570;2024-03-02T02:23:44;97625.46;;;11.06;47.23
84032;BME280;74113;46.556;24.570;2024-03-02T02:26:16;97627.49;;;11.04;47.16
84032;BME280;74113;46.556;24.570;2024-03-02T02:28:45;97621.17;;;11.02;45.88
84032;BME280;74113;46.556;24.570;2024-03-02T02:31:16;97622.55;;;11.02;46.24
84032;BME280;74113;46.556;24.570;2024-03-02T02:33:44;97619.95;;;11.02;46.55
84032;BME280;74113;46.556;24.570;2024-03-02T02:36:13;97613.86;;;10.99;46.50
84032;BME280;74113;46.556;24.570;2024-03-02T02:38:44;97607.56;;;10.97;46.54
84032;BME280;74113;46.556;24.570;2024-03-02T02:41:15;97602.65;;;10.94;46.86
84032;BME280;74113;46.556;24.570;2024-03-02T02:43:43;97596.17;;;10.92;47.70
84032;BME280;74113;46.556;24.570;2024-03-02T02:46:12;97592.06;;;10.90;47.97
84032;BME280;74113;46.556;24.570;2024-03-02T02:48:41;97590.91;;;10.86;48.66
84032;BME280;74113;46.556;24.570;2024-03-02T02:51:10;97593.48;;;10.83;47.87
84032;BME280;74113;46.556;24.570;2024-03-02T02:53:38;97596.70;;;10.81;47.81
84032;BME280;74113;46.556;24.570;2024-03-02T02:56:09;97596.19;;;10.81;47.99
84032;BME280;74113;46.556;24.570;2024-03-02T02:58:40;97592.92;;;10.81;48.07
84032;BME280;74113;46.556;24.570;2024-03-02T03:01:09;97589.81;;;10.80;48.45
84032;BME280;74113;46.556;24.570;2024-03-02T03:03:39;97585.19;;;10.79;48.62
84032;BME280;74113;46.556;24.570;2024-03-02T03:06:07;97580.90;;;10.78;48.32
84032;BME280;74113;46.556;24.570;2024-03-02T03:08:36;97579.75;;;10.77;48.31
84032;BME280;74113;46.556;24.570;2024-03-02T03:11:04;97582.35;;;10.74;48.31
84032;BME280;74113;46.556;24.570;2024-03-02T03:13:34;97576.84;;;10.73;47.85
84032;BME280;74113;46.556;24.570;2024-03-02T03:16:03;97572.23;;;10.71;48.45
84032;BME280;74113;46.556;24.570;2024-03-02T03:18:32;97571.36;;;10.68;47.81
84032;BME280;74113;46.556;24.570;2024-03-02T03:21:00;97573.57;;;10.66;47.96
84032;BME280;74113;46.556;24.570;2024-03-02T03:23:28;97573.45;;;10.64;48.07
84032;BME280;74113;46.556;24.570;2024-03-02T03:25:57;97570.05;;;10.63;48.56
84032;BME280;74113;46.556;24.570;2024-03-02T03:28:26;97568.00;;;10.62;47.89
84032;BME280;74113;46.556;24.570;2024-03-02T03:30:54;97563.02;;;10.61;48.13
84032;BME280;74113;46.556;24.570;2024-03-02T03:33:23;97569.70;;;10.60;48.36
84032;BME280;74113;46.556;24.570;2024-03-02T03:35:52;97568.58;;;10.58;48.49
84032;BME280;74113;46.556;24.570;2024-03-02T03:38:21;97564.81;;;10.57;48.57
84032;BME280;74113;46.556;24.570;2024-03-02T03:40:50;97561.63;;;10.58;49.19
84032;BME280;74113;46.556;24.570;2024-03-02T03:43:18;97563.52;;;10.58;48.21
84032;BME280;74113;46.556;24.570;2024-03-02T03:45:47;97560.09;;;10.57;49.26
84032;BME280;74113;46.556;24.570;2024-03-02T03:48:15;97551.15;;;10.59;48.62
84032;BME280;74113;46.556;24.570;2024-03-02T03:50:44;97547.77;;;10.57;49.02
84032;BME280;74113;46.556;24.570;2024-03-02T03:53:13;97548.39;;;10.56;49.18
84032;BME280;74113;46.556;24.570;2024-03-02T03:55:42;97542.20;;;10.54;49.22
84032;BME280;74113;46.556;24.570;2024-03-02T03:58:11;97547.23;;;10.54;48.72
84032;BME280;74113;46.556;24.570;2024-03-02T04:00:40;97545.34;;;10.51;48.48
84032;BME280;74113;46.556;24.570;2024-03-02T04:03:08;97544.80;;;10.48;48.73
84032;BME280;74113;46.556;24.570;2024-03-02T04:05:36;97543.40;;;10.48;48.83
84032;BME280;74113;46.556;24.570;2024-03-02T04:08:06;97542.05;;;10.47;48.37
84032;BME280;74113;46.556;24.570;2024-03-02T04:10:35;97539.90;;;10.45;49.78
84032;BME280;74113;46.556;24.570;2024-03-02T04:13:03;97540.84;;;10.44;50.12
84032;BME280;74113;46.556;24.570;2024-03-02T04:15:32;97540.02;;;10.43;49.35
84032;BME280;74113;46.556;24.570;2024-03-02T04:18:01;97540.92;;;10.42;49.65
84032;BME280;74113;46.556;24.570;2024-03-02T04:20:30;97542.61;;;10.39;49.76
84032;BME280;74113;46.556;24.570;2024-03-02T04:22:58;97542.57;;;10.36;49.26
84032;BME280;74113;46.556;24.570;2024-03-02T04:25:26;97545.40;;;10.35;49.55
84032;BME280;74113;46.556;24.570;2024-03-02T04:27:55;97546.58;;;10.33;49.38
84032;BME280;74113;46.556;24.570;2024-03-02T04:30:23;97543.75;;;10.30;49.90
84032;BME280;74113;46.556;24.570;2024-03-02T04:32:53;97546.38;;;10.26;49.92
84032;BME280;74113;46.556;24.570;2024-03-02T04:35:22;97552.43;;;10.23;50.05
84032;BME280;74113;46.556;24.570;2024-03-02T04:37:50;97558.20;;;10.22;50.12
84032;BME280;74113;46.556;24.570;2024-03-02T04:40:18;97559.53;;;10.20;50.67
84032;BME280;74113;46.556;24.570;2024-03-02T04:42:47;97558.02;;;10.18;49.93
84032;BME280;74113;46.556;24.570;2024-03-02T04:45:15;97557.45;;;10.16;50.40
84032;BME280;74113;46.556;24.570;2024-03-02T04:47:44;97561.38;;;10.13;50.68
84032;BME280;74113;46.556;24.570;2024-03-02T04:50:16;97559.19;;;10.11;50.87
84032;BME280;74113;46.556;24.570;2024-03-02T04:52:44;97558.94;;;10.10;50.52
84032;BME280;74113;46.556;24.570;2024-03-02T04:55:13;97557.84;;;10.07;50.83
84032;BME280;74113;46.556;24.570;2024-03-02T04:57:44;97553.41;;;10.06;50.35
84032;BME280;74113;46.556;24.570;2024-03-02T05:00:15;97556.19;;;10.06;50.10
84032;BME280;74113;46.556;24.570;2024-03-02T05:02:43;97554.39;;;10.07;50.19
84032;BME280;74113;46.556;24.570;2024-03-02T05:05:12;97553.26;;;10.09;49.52
84032;BME280;74113;46.556;24.570;2024-03-02T05:07:40;97553.55;;;10.10;49.73
84032;BME280;74113;46.556;24.570;2024-03-02T05:10:10;97553.89;;;10.11;50.72
84032;BME280;74113;46.556;24.570;2024-03-02T05:12:40;97556.03;;;10.09;50.58
84032;BME280;74113;46.556;24.570;2024-03-02T05:15:13;97557.86;;;10.07;49.69
84032;BME280;74113;46.556;24.570;2024-03-02T05:17:42;97559.43;;;10.03;50.17
84032;BME280;74113;46.556;24.570;2024-03-02T05:20:14;97561.55;;;10.02;51.11
84032;BME280;74113;46.556;24.570;2024-03-02T05:22:42;97566.80;;;9.98;51.59
84032;BME280;74113;46.556;24.570;2024-03-02T05:25:11;97566.36;;;9.92;52.05
84032;BME280;74113;46.556;24.570;2024-03-02T05:27:39;97570.20;;;9.88;52.01
84032;BME280;74113;46.556;24.570;2024-03-02T05:30:09;97576.88;;;9.86;52.12
84032;BME280;74113;46.556;24.570;2024-03-02T05:32:38;97574.70;;;9.84;52.71
84032;BME280;74113;46.556;24.570;2024-03-02T05:35:07;97574.92;;;9.83;51.97
84032;BME280;74113;46.556;24.570;2024-03-02T05:37:36;97573.49;;;9.84;52.12
84032;BME280;74113;46.556;24.570;2024-03-02T05:40:05;97580.38;;;9.85;52.10
84032;BME280;74113;46.556;24.570;2024-03-02T05:42:34;97578.71;;;9.84;51.80
84032;BME280;74113;46.556;24.570;2024-03-02T05:45:04;97585.67;;;9.83;52.46
84032;BME280;74113;46.556;24.570;2024-03-02T05:47:32;97586.55;;;9.83;52.45
84032;BME280;74113;46.556;24.570;2024-03-02T05:50:02;97585.34;;;9.83;51.48
84032;BME280;74113;46.556;24.570;2024-03-02T05:52:32;97585.81;;;9.84;52.30
84032;BME280;74113;46.556;24.570;2024-03-02T05:55:00;97584.52;;;9.85;52.19
84032;BME280;74113;46.556;24.570;2024-03-02T05:57:29;97584.55;;;9.85;52.34
84032;BME280;74113;46.556;24.570;2024-03-02T06:00:18;97588.54;;;9.84;52.64
84032;BME280;74113;46.556;24.570;2024-03-02T06:02:46;97594.58;;;9.85;52.38
84032;BME280;74113;46.556;24.570;2024-03-02T06:05:15;97589.28;;;9.87;51.81
84032;BME280;74113;46.556;24.570;2024-03-02T06:07:45;97590.89;;;9.90;51.82
84032;BME280;74113;46.556;24.570;2024-03-02T06:10:14;97591.41;;;9.90;52.13
84032;BME280;74113;46.556;24.570;2024-03-02T06:12:43;97597.29;;;9.91;52.29
84032;BME280;74113;46.556;24.570;2024-03-02T06:15:11;97594.11;;;9.91;51.38
84032;BME280;74113;46.556;24.570;2024-03-02T06:17:40;97597.36;;;9.93;51.96
84032;BME280;74113;46.556;24.570;2024-03-02T06:20:09;97600.57;;;9.94;52.20
84032;BME280;74113;46.556;24.570;2024-03-02T06:22:38;97601.29;;;9.97;51.57
84032;BME280;74113;46.556;24.570;2024-03-02T06:25:07;97598.60;;;9.99;51.87
84032;BME280;74113;46.556;24.570;2024-03-02T06:27:36;97603.50;;;10.02;51.42
84032;BME280;74113;46.556;24.570;2024-03-02T06:30:05;97606.84;;;10.05;51.23
84032;BME280;74113;46.556;24.570;2024-03-02T06:32:34;97601.54;;;10.07;51.47
84032;BME280;74113;46.556;24.570;2024-03-02T06:35:04;97602.55;;;10.11;51.39
84032;BME280;74113;46.556;24.570;2024-03-02T06:37:34;97600.94;;;10.12;51.09
84032;BME280;74113;46.556;24.570;2024-03-02T06:40:02;97604.25;;;10.12;51.37
84032;BME280;74113;46.556;24.570;2024-03-02T06:42:31;97601.59;;;10.14;51.63
84032;BME280;74113;46.556;24.570;2024-03-02T06:45:02;97601.98;;;10.12;51.60
84032;BME280;74113;46.556;24.570;2024-03-02T06:47:31;97604.89;;;10.13;51.42
84032;BME280;74113;46.556;24.570;2024-03-02T06:50:00;97603.02;;;10.16;51.43
84032;BME280;74113;46.556;24.570;2024-03-02T06:52:29;97607.50;;;10.20;50.84
84032;BME280;74113;46.556;24.570;2024-03-02T06:54:57;97604.91;;;10.24;50.96
84032;BME280;74113;46.556;24.570;2024-03-02T06:57:26;97607.03;;;10.30;51.26
84032;BME280;74113;46.556;24.570;2024-03-02T06:59:55;97607.74;;;10.33;51.13
84032;BME280;74113;46.556;24.570;2024-03-02T07:02:27;97608.48;;;10.36;51.60
84032;BME280;74113;46.556;24.570;2024-03-02T07:04:56;97609.98;;;10.41;51.50
84032;BME280;74113;46.556;24.570;2024-03-02T07:07:25;97609.75;;;10.46;51.28
84032;BME280;74113;46.556;24.570;2024-03-02T07:09:53;97611.22;;;10.52;51.39
84032;BME280;74113;46.556;24.570;2024-03-02T07:12:22;97612.65;;;10.58;51.42
84032;BME280;74113;46.556;24.570;2024-03-02T07:14:51;97616.71;;;10.63;51.35
84032;BME280;74113;46.556;24.570;2024-03-02T07:17:39;97616.41;;;10.73;51.11
84032;BME280;74113;46.556;24.570;2024-03-02T07:20:08;97618.35;;;10.79;51.11
84032;BME280;74113;46.556;24.570;2024-03-02T07:22:37;97613.34;;;10.85;51.47
84032;BME280;74113;46.556;24.570;2024-03-02T07:25:10;97618.31;;;10.93;51.19
84032;BME280;74113;46.556;24.570;2024-03-02T07:27:59;97619.28;;;11.02;50.53
84032;BME280;74113;46.556;24.570;2024-03-02T07:30:28;97619.02;;;11.07;50.31
84032;BME280;74113;46.556;24.570;2024-03-02T07:32:59;97618.84;;;11.14;50.91
84032;BME280;74113;46.556;24.570;2024-03-02T07:35:28;97619.15;;;11.21;50.82
84032;BME280;74113;46.556;24.570;2024-03-02T07:37:56;97621.58;;;11.28;50.67
84032;BME280;74113;46.556;24.570;2024-03-02T07:40:25;97618.92;;;11.38;50.49
84032;BME280;74113;46.556;24.570;2024-03-02T07:42:54;97622.42;;;11.48;50.15
84032;BME280;74113;46.556;24.570;2024-03-02T07:45:23;97620.70;;;11.61;50.01
84032;BME280;74113;46.556;24.570;2024-03-02T07:47:52;97624.46;;;11.72;49.84
84032;BME280;74113;46.556;24.570;2024-03-02T07:50:22;97621.86;;;11.85;49.41
84032;BME280;74113;46.556;24.570;2024-03-02T07:52:50;97621.41;;;12.00;49.51
84032;BME280;74113;46.556;24.570;2024-03-02T07:55:18;97620.60;;;12.14;49.24
84032;BME280;74113;46.556;24.570;2024-03-02T07:57:48;97615.84;;;12.28;48.34
84032;BME280;74113;46.556;24.570;2024-03-02T08:00:17;97618.89;;;12.41;48.35
84032;BME280;74113;46.556;24.570;2024-03-02T08:02:46;97616.56;;;12.55;47.75
84032;BME280;74113;46.556;24.570;2024-03-02T08:05:15;97623.42;;;12.69;47.61
84032;BME280;74113;46.556;24.570;2024-03-02T08:07:45;97619.23;;;12.81;47.09
84032;BME280;74113;46.556;24.570;2024-03-02T08:10:14;97620.93;;;12.94;47.04
84032;BME280;74113;46.556;24.570;2024-03-02T08:12:43;97623.04;;;13.05;46.85
84032;BME280;74113;46.556;24.570;2024-03-02T08:15:12;97624.16;;;13.16;46.50
84032;BME280;74113;46.556;24.570;2024-03-02T08:17:44;97625.80;;;13.27;46.23
84032;BME280;74113;46.556;24.570;2024-03-02T08:20:18;97627.52;;;13.36;45.93
84032;BME280;74113;46.556;24.570;2024-03-02T08:22:47;97627.83;;;13.42;45.34
84032;BME280;74113;46.556;24.570;2024-03-02T08:25:16;97622.92;;;13.48;45.44
84032;BME280;74113;46.556;24.570;2024-03-02T08:27:45;97622.27;;;13.57;45.24
84032;BME280;74113;46.556;24.570;2024-03-02T08:30:14;97613.55;;;13.65;45.32
84032;BME280;74113;46.556;24.570;2024-03-02T08:32:44;97613.33;;;13.71;44.33
84032;BME280;74113;46.556;24.570;2024-03-02T08:35:15;97612.17;;;13.79;45.18
84032;BME280;74113;46.556;24.570;2024-03-02T08:37:45;97611.64;;;13.84;45.34
84032;BME280;74113;46.556;24.570;2024-03-02T08:40:14;97612.42;;;13.89;45.37
84032;BME280;74113;46.556;24.570;2024-03-02T08:42:47;97611.70;;;13.92;45.33
84032;BME280;74113;46.556;24.570;2024-03-02T08:45:15;97612.05;;;13.94;44.18
84032;BME280;74113;46.556;24.570;2024-03-02T08:47:44;97611.60;;;13.99;43.22
84032;BME280;74113;46.556;24.570;2024-03-02T08:50:13;97612.77;;;14.05;43.21
84032;BME280;74113;46.556;24.570;2024-03-02T08:52:42;97609.55;;;14.12;43.52
84032;BME280;74113;46.556;24.570;2024-03-02T08:55:11;97608.45;;;14.18;43.21
84032;BME280;74113;46.556;24.570;2024-03-02T08:57:40;97605.88;;;14.23;42.58
84032;BME280;74113;46.556;24.570;2024-03-02T09:00:11;97606.29;;;14.27;41.99
84032;BME280;74113;46.556;24.570;2024-03-02T09:02:40;97609.74;;;14.34;42.29
84032;BME280;74113;46.556;24.570;2024-03-02T09:05:09;97606.23;;;14.39;42.59
84032;BME280;74113;46.556;24.570;2024-03-02T09:07:38;97605.41;;;14.46;42.90
84032;BME280;74113;46.556;24.570;2024-03-02T09:10:09;97606.74;;;14.53;42.63
84032;BME280;74113;46.556;24.570;2024-03-02T09:12:38;97606.11;;;14.60;42.12
84032;BME280;74113;46.556;24.570;2024-03-02T09:15:09;97603.45;;;14.66;42.20
84032;BME280;74113;46.556;24.570;2024-03-02T09:17:37;97605.77;;;14.74;40.56
84032;BME280;74113;46.556;24.570;2024-03-02T09:20:07;97604.14;;;14.79;40.95
84032;BME280;74113;46.556;24.570;2024-03-02T09:22:36;97603.95;;;14.87;41.05
84032;BME280;74113;46.556;24.570;2024-03-02T09:25:05;97608.27;;;14.96;40.52
84032;BME280;74113;46.556;24.570;2024-03-02T09:27:38;97608.88;;;15.02;40.05
84032;BME280;74113;46.556;24.570;2024-03-02T09:30:10;97607.59;;;15.08;39.90
84032;BME280;74113;46.556;24.570;2024-03-02T09:32:38;97608.51;;;15.13;39.67
84032;BME280;74113;46.556;24.570;2024-03-02T09:35:08;97612.35;;;15.18;39.08
84032;BME280;74113;46.556;24.570;2024-03-02T09:37:37;97612.50;;;15.18;38.01
84032;BME280;74113;46.556;24.570;2024-03-02T09:40:07;97609.15;;;15.19;38.22
84032;BME280;74113;46.556;24.570;2024-03-02T09:42:36;97609.63;;;15.25;38.13
84032;BME280;74113;46.556;24.570;2024-03-02T09:45:06;97607.55;;;15.29;38.39
84032;BME280;74113;46.556;24.570;2024-03-02T09:47:36;97604.85;;;15.31;37.95
84032;BME280;74113;46.556;24.570;2024-03-02T09:50:07;97609.93;;;15.33;37.74
84032;BME280;74113;46.556;24.570;2024-03-02T09:52:36;97603.77;;;15.34;37.63
84032;BME280;74113;46.556;24.570;2024-03-02T09:55:06;97609.21;;;15.33;37.26
84032;BME280;74113;46.556;24.570;2024-03-02T09:57:34;97606.02;;;15.31;37.68
84032;BME280;74113;46.556;24.570;2024-03-02T10:00:06;97606.30;;;15.32;37.22
84032;BME280;74113;46.556;24.570;2024-03-02T10:02:35;97606.96;;;15.33;36.67
84032;BME280;74113;46.556;24.570;2024-03-02T10:05:04;97605.92;;;15.33;36.64
84032;BME280;74113;46.556;24.570;2024-03-02T10:07:33;97607.64;;;15.33;36.49
84032;BME280;74113;46.556;24.570;2024-03-02T10:10:14;97603.98;;;15.36;35.78
84032;BME280;74113;46.556;24.570;2024-03-02T10:12:43;97603.47;;;15.43;36.02
84032;BME280;74113;46.556;24.570;2024-03-02T10:15:12;97605.04;;;15.51;35.70
84032;BME280;74113;46.556;24.570;2024-03-02T10:17:40;97600.69;;;15.58;35.23
84032;BME280;74113;46.556;24.570;2024-03-02T10:20:22;97597.36;;;15.61;35.17
84032;BME280;74113;46.556;24.570;2024-03-02T10:22:51;97595.77;;;15.72;35.26
84032;BME280;74113;46.556;24.570;2024-03-02T10:25:33;97593.73;;;15.80;34.56
84032;BME280;74113;46.556;24.570;2024-03-02T10:28:05;97592.91;;;15.90;34.83
84032;BME280;74113;46.556;24.570;2024-03-02T10:30:35;97594.45;;;15.95;34.47
84032;BME280;74113;46.556;24.570;2024-03-02T10:33:06;97591.73;;;15.89;34.04
84032;BME280;74113;46.556;24.570;2024-03-02T10:35:35;97588.95;;;15.84;33.98
84032;BME280;74113;46.556;24.570;2024-03-02T10:38:05;97589.96;;;15.79;33.85
84032;BME280;74113;46.556;24.570;2024-03-02T10:40:35;97585.87;;;15.80;34.55
84032;BME280;74113;46.556;24.570;2024-03-02T10:43:04;97587.14;;;15.87;34.79
84032;BME280;74113;46.556;24.570;2024-03-02T10:45:34;97586.27;;;15.94;34.60
84032;BME280;74113;46.556;24.570;2024-03-02T10:48:04;97580.95;;;16.00;34.64
84032;BME280;74113;46.556;24.570;2024-03-02T10:50:33;97577.08;;;16.07;34.12
84032;BME280;74113;46.556;24.570;2024-03-02T10:53:02;97582.60;;;16.14;33.95
84032;BME280;74113;46.556;24.570;2024-03-02T10:55:33;97579.16;;;16.15;33.74
84032;BME280;74113;46.556;24.570;2024-03-02T10:58:04;97580.52;;;16.18;33.94
84032;BME280;74113;46.556;24.570;2024-03-02T11:00:38;97576.42;;;16.21;33.42
84032;BME280;74113;46.556;24.570;2024-03-02T11:03:07;97574.31;;;16.26;33.86
84032;BME280;74113;46.556;24.570;2024-03-02T11:05:40;97573.77;;;16.34;33.99
84032;BME280;74113;46.556;24.570;2024-03-02T11:08:18;97567.52;;;16.35;33.78
84032;BME280;74113;46.556;24.570;2024-03-02T11:10:58;97567.84;;;16.40;34.08
84032;BME280;74113;46.556;24.570;2024-03-02T11:13:33;97562.77;;;16.47;33.61
84032;BME280;74113;46.556;24.570;2024-03-02T11:16:32;97559.58;;;16.58;33.62
84032;BME280;74113;46.556;24.570;2024-03-02T11:19:10;97561.01;;;16.74;33.33
84032;BME280;74113;46.556;24.570;2024-03-02T11:21:42;97561.52;;;16.88;33.13
84032;BME280;74113;46.556;24.570;2024-03-02T11:26:50;97559.30;;;16.94;32.77
84032;BME280;74113;46.556;24.570;2024-03-02T11:29:49;97551.02;;;16.97;32.57
84032;BME280;74113;46.556;24.570;2024-03-02T11:32:22;97551.48;;;17.02;32.92
84032;BME280;74113;46.556;24.570;2024-03-02T11:34:53;97550.60;;;17.12;33.30
84032;BME280;74113;46.556;24.570;2024-03-02T11:37:24;97549.28;;;17.27;32.83
84032;BME280;74113;46.556;24.570;2024-03-02T11:39:53;97546.33;;;17.40;32.62
84032;BME280;74113;46.556;24.570;2024-03-02T11:42:21;97544.56;;;17.44;31.32
84032;BME280;74113;46.556;24.570;2024-03-02T11:44:50;97543.21;;;17.45;31.85
84032;BME280;74113;46.556;24.570;2024-03-02T11:47:19;97543.61;;;17.56;31.56
84032;BME280;74113;46.556;24.570;2024-03-02T11:49:50;97540.64;;;17.63;31.18
84032;BME280;74113;46.556;24.570;2024-03-02T11:52:20;97539.90;;;17.68;32.09
84032;BME280;74113;46.556;24.570;2024-03-02T11:54:51;97535.73;;;17.79;32.11
84032;BME280;74113;46.556;24.570;2024-03-02T11:57:21;97535.73;;;17.83;31.63
84032;BME280;74113;46.556;24.570;2024-03-02T11:59:55;97539.34;;;17.89;31.17
84032;BME280;74113;46.556;24.570;2024-03-02T12:02:31;97537.66;;;18.00;31.13
84032;BME280;74113;46.556;24.570;2024-03-02T12:05:03;97536.31;;;18.13;30.39
84032;BME280;74113;46.556;24.570;2024-03-02T12:07:32;97535.65;;;18.23;30.84
84032;BME280;74113;46.556;24.570;2024-03-02T12:10:01;97532.36;;;18.44;30.22
84032;BME280;74113;46.556;24.570;2024-03-02T12:12:31;97534.62;;;18.76;29.81
84032;BME280;74113;46.556;24.570;2024-03-02T12:15:00;97530.71;;;19.06;30.37
84032;BME280;74113;46.556;24.570;2024-03-02T12:17:29;97528.20;;;19.29;28.86
84032;BME280;74113;46.556;24.570;2024-03-02T12:19:58;97527.34;;;19.47;28.68
84032;BME280;74113;46.556;24.570;2024-03-02T12:22:28;97523.08;;;19.46;27.65
84032;BME280;74113;46.556;24.570;2024-03-02T12:24:57;97525.58;;;19.43;28.14
84032;BME280;74113;46.556;24.570;2024-03-02T12:27:26;97520.02;;;19.65;28.82
84032;BME280;74113;46.556;24.570;2024-03-02T12:29:54;97522.89;;;19.90;28.18
84032;BME280;74113;46.556;24.570;2024-03-02T12:32:23;97527.39;;;20.11;29.00
84032;BME280;74113;46.556;24.570;2024-03-02T12:34:52;97521.60;;;20.38;28.69
84032;BME280;74113;46.556;24.570;2024-03-02T12:37:21;97520.36;;;20.57;28.58
84032;BME280;74113;46.556;24.570;2024-03-02T12:39:49;97516.73;;;20.76;28.06
84032;BME280;74113;46.556;24.570;2024-03-02T12:42:18;97513.48;;;20.67;25.75
84032;BME280;74113;46.556;24.570;2024-03-02T12:44:46;97511.75;;;20.57;27.24
84032;BME280;74113;46.556;24.570;2024-03-02T12:47:15;97514.34;;;20.69;27.61
84032;BME280;74113;46.556;24.570;2024-03-02T12:49:44;97513.53;;;20.76;27.97
84032;BME280;74113;46.556;24.570;2024-03-02T12:52:13;97512.21;;;20.85;28.29
84032;BME280;74113;46.556;24.570;2024-03-02T12:54:43;97512.09;;;20.93;28.30
84032;BME280;74113;46.556;24.570;2024-03-02T12:57:19;97510.61;;;21.02;27.81
84032;BME280;74113;46.556;24.570;2024-03-02T12:59:48;97510.33;;;21.03;28.10
84032;BME280;74113;46.556;24.570;2024-03-02T13:02:17;97505.92;;;20.90;27.75
84032;BME280;74113;46.556;24.570;2024-03-02T13:04:53;97506.90;;;20.71;27.23
84032;BME280;74113;46.556;24.570;2024-03-02T13:07:25;97503.34;;;20.37;27.55